Time;durP1;ratioP1;P1;durP2;ratioP2;P2;SDS_P1;SDS_P2;PMS_P1;PMS_P2;Temp;Humidity;BMP_temperature;BMP_pressure;BME280_temperature;BME280_humidity;BME280_pressure;Samples;Min_cycle;Max_cycle;Signal;HPM_P1;HPM_P2
2021/03/22 00:00:42;;;;;;;;;;;;;;;;;;5095365;28;20036;-54
2021/03/22 00:03:08;;;;;;;19.03;3.73;;;;;;;;;;5095675;28;19908;-56
2021/03/22 00:05:34;;;;;;;25.60;4.30;;;;;;;;;;5094909;28;20404;-55
2021/03/22 00:07:59;;;;;;;25.90;4.57;;;;;;;;;;5095579;28;20376;-56
2021/03/22 00:10:26;;;;;;;23.10;4.37;;;;;;;;;;5095496;28;20261;-55
2021/03/22 00:12:53;;;;;;;27.80;4.45;;;;;;;;;;5094688;28;20040;-55
2021/03/22 00:15:19;;;;;;;25.27;5.07;;;;;;;;;;5095452;28;20055;-58
2021/03/22 00:17:45;;;;;;;30.90;6.32;;;;;;;;;;5076436;28;20031;-55
2021/03/22 00:20:11;;;;;;;30.73;5.40;;;;;;;;;;5095206;28;20410;-55
2021/03/22 00:22:36;;;;;;;38.20;6.18;;;;;;;;;;5075929;28;20096;-56
2021/03/22 00:25:02;;;;;;;25.50;5.47;;;;;;;;;;5094730;28;20028;-55
2021/03/22 00:27:28;;;;;;;33.30;5.50;;;;;;;;;;5095046;28;20127;-55
2021/03/22 00:29:53;;;;;;;25.00;5.07;;;;;;;;;;5093837;28;20214;-54
2021/03/22 00:32:19;;;;;;;27.93;7.00;;;;;;;;;;5059243;28;20020;-55
2021/03/22 00:34:44;;;;;;;26.20;4.37;;;;;;;;;;5093739;28;20077;-57
2021/03/22 00:37:09;;;;;;;25.37;5.20;;;;;;;;;;5076175;28;20080;-54
2021/03/22 00:39:35;;;;;;;30.57;5.23;;;;;;;;;;5093751;28;20103;-56
2021/03/22 00:42:00;;;;;;;43.80;6.00;;;;;;;;;;5094261;28;20073;-56
2021/03/22 00:44:25;;;;;;;28.90;5.47;;;;;;;;;;5094288;28;20490;-57
2021/03/22 00:46:51;;;;;;;25.77;4.97;;;;;;;;;;5093224;28;20024;-56
2021/03/22 00:49:17;;;;;;;26.30;6.07;;;;;;;;;;5094163;28;20070;-58
2021/03/22 00:51:42;;;;;;;25.38;5.88;;;;;;;;;;5093665;28;20028;-57
2021/03/22 00:54:07;;;;;;;24.87;4.97;;;;;;;;;;5058493;28;20051;-57
2021/03/22 00:56:33;;;;;;;28.97;5.20;;;;;;;;;;5094408;28;20146;-58
2021/03/22 00:58:58;;;;;;;46.70;8.40;;;;;;;;;;5093716;28;20131;-57
2021/03/22 01:01:24;;;;;;;35.53;6.73;;;;;;;;;;5094229;28;20044;-57
2021/03/22 01:03:49;;;;;;;33.73;6.57;;;;;;;;;;5093731;28;20032;-57
2021/03/22 01:06:14;;;;;;;25.17;7.07;;;;;;;;;;5074785;28;20027;-55
2021/03/22 01:08:40;;;;;;;27.70;6.40;;;;;;;;;;5093673;28;20028;-55
2021/03/22 01:11:13;;;;;;;30.65;6.82;;;;;;;;;;5094212;28;20035;-55
2021/03/22 01:13:40;;;;;;;26.02;6.13;;;;;;;;;;5074780;28;20583;-56
2021/03/22 01:16:05;;;;;;;;;;;;;;;;;;5094469;28;20036;-55
2021/03/22 01:18:32;;;;;;;27.83;6.13;;;;;;;;;;5093736;28;19908;-55
2021/03/22 01:21:01;;;;;;;31.52;6.85;;;;;;;;;;5093347;28;20032;-57
2021/03/22 01:23:27;;;;;;;39.50;6.93;;;;;;;;;;5075566;28;20032;-55
2021/03/22 01:25:52;;;;;;;28.83;6.40;;;;;;;;;;5074985;28;20178;-54
2021/03/22 01:28:18;;;;;;;28.07;6.90;;;;;;;;;;5093772;28;20035;-55
2021/03/22 01:30:47;;;;;;;28.95;6.13;;;;;;;;;;5093209;28;20032;-56
2021/03/22 01:33:14;;;;;;;32.67;6.43;;;;;;;;;;5093915;28;20124;-55
2021/03/22 01:35:39;;;;;;;;;;;;;;;;;;5093458;28;20111;-55
2021/03/22 01:38:05;;;;;;;29.00;6.70;;;;;;;;;;5093405;28;19943;-57
2021/03/22 01:40:37;;;;;;;22.95;6.75;;;;;;;;;;5075335;28;20029;-55
2021/03/22 01:43:06;;;;;;;41.40;6.25;;;;;;;;;;5074559;28;20499;-56
2021/03/22 01:45:31;;;;;;;30.60;6.07;;;;;;;;;;5075119;28;20042;-57
2021/03/22 01:47:56;;;;;;;23.80;5.73;;;;;;;;;;5092850;28;20028;-57
2021/03/22 01:50:24;;;;;;;31.07;7.70;;;;;;;;;;5093208;28;20063;-57
2021/03/22 01:52:50;;;;;;;37.00;7.13;;;;;;;;;;5074454;28;20028;-57
2021/03/22 01:55:15;;;;;;;21.50;7.05;;;;;;;;;;5093577;28;20028;-57
2021/03/22 01:57:42;;;;;;;42.33;8.80;;;;;;;;;;5074778;28;20440;-56
2021/03/22 02:00:23;;;;;;;36.42;7.80;;;;;;;;;;5093186;28;20506;-56
2021/03/22 02:02:51;;;;;;;35.08;7.55;;;;;;;;;;5073959;28;20460;-56
2021/03/22 02:05:25;;;;;;;41.47;8.23;;;;;;;;;;5108782;28;20064;-56
2021/03/22 02:07:52;;;;;;;30.15;6.63;;;;;;;;;;5092469;28;20039;-56
2021/03/22 02:10:18;;;;;;;35.20;7.53;;;;;;;;;;5093074;28;20035;-55
2021/03/22 02:12:43;;;;;;;37.85;8.18;;;;;;;;;;5091995;28;20375;-56
2021/03/22 02:15:09;;;;;;;33.50;6.03;;;;;;;;;;5092700;28;20056;-56
2021/03/22 02:17:55;;;;;;;37.80;7.18;;;;;;;;;;5074464;28;20467;-56
2021/03/22 02:20:41;;;;;;;37.28;7.13;;;;;;;;;;5074657;28;20084;-56
2021/03/22 02:23:13;;;;;;;30.05;7.80;;;;;;;;;;5073940;28;20036;-55
2021/03/22 02:25:41;;;;;;;34.20;7.45;;;;;;;;;;5092465;28;20025;-55
2021/03/22 02:28:31;;;;;;;49.83;8.20;;;;;;;;;;5073784;28;20048;-56
2021/03/22 02:30:59;;;;;;;33.05;8.00;;;;;;;;;;5073807;28;20032;-56
2021/03/22 02:33:37;;;;;;;33.65;7.72;;;;;;;;;;5092473;28;20115;-57
2021/03/22 02:36:02;;;;;;;48.85;9.02;;;;;;;;;;5073344;28;20031;-56
2021/03/22 02:38:28;;;;;;;38.10;7.40;;;;;;;;;;5092510;28;20073;-55
2021/03/22 02:40:56;;;;;;;38.55;8.27;;;;;;;;;;5073757;28;20032;-55
2021/03/22 02:43:22;;;;;;;42.60;8.63;;;;;;;;;;5074057;28;20177;-57
2021/03/22 02:45:47;;;;;;;32.37;8.17;;;;;;;;;;5091736;28;20103;-56
2021/03/22 02:48:18;;;;;;;37.67;7.70;;;;;;;;;;5092448;28;20257;-56
2021/03/22 02:50:44;;;;;;;31.50;7.03;;;;;;;;;;5092377;28;20039;-56
2021/03/22 02:53:09;;;;;;;32.42;9.23;;;;;;;;;;5091534;28;20036;-56
2021/03/22 02:55:53;;;;;;;35.97;8.60;;;;;;;;;;5073736;28;20032;-57
2021/03/22 02:58:21;;;;;;;37.50;7.55;;;;;;;;;;5092149;28;20503;-56
2021/03/22 03:00:51;;;;;;;42.55;8.68;;;;;;;;;;5092165;28;20055;-56
2021/03/22 03:03:19;;;;;;;51.80;9.57;;;;;;;;;;5074118;28;20479;-56
2021/03/22 03:05:49;;;;;;;38.75;7.75;;;;;;;;;;5092088;28;20455;-54
2021/03/22 03:08:14;;;;;;;35.22;8.38;;;;;;;;;;5073813;28;20028;-57
2021/03/22 03:10:40;;;;;;;38.57;7.90;;;;;;;;;;5091980;28;20031;-57
2021/03/22 03:13:05;;;;;;;32.93;8.67;;;;;;;;;;5091216;28;20284;-54
2021/03/22 03:15:31;;;;;;;41.33;7.53;;;;;;;;;;5091616;28;20048;-56
2021/03/22 03:17:56;;;;;;;38.80;8.50;;;;;;;;;;5073036;28;20067;-56
2021/03/22 03:20:23;;;;;;;33.40;7.83;;;;;;;;;;5091785;28;20040;-56
2021/03/22 03:22:48;;;;;;;;;;;;;;;;;;5092131;28;20111;-55
2021/03/22 03:25:14;;;;;;;30.80;7.43;;;;;;;;;;5073004;28;20350;-55
2021/03/22 03:27:39;;;;;;;31.33;6.20;;;;;;;;;;5091293;28;20107;-57
2021/03/22 03:30:06;;;;;;;32.00;8.93;;;;;;;;;;5091000;28;20036;-56
2021/03/22 03:32:31;;;;;;;43.53;8.38;;;;;;;;;;5091466;28;20456;-54
2021/03/22 03:34:56;;;;;;;37.20;8.60;;;;;;;;;;5090749;28;20025;-55
2021/03/22 03:37:22;;;;;;;45.40;9.27;;;;;;;;;;5091708;28;20118;-55
2021/03/22 03:39:47;;;;;;;39.70;8.90;;;;;;;;;;5091457;28;20032;-56
2021/03/22 03:42:13;;;;;;;40.63;9.23;;;;;;;;;;5091002;28;20020;-56
2021/03/22 03:44:38;;;;;;;32.00;8.27;;;;;;;;;;5091659;28;20024;-55
2021/03/22 03:47:04;;;;;;;44.55;8.15;;;;;;;;;;5090935;28;20085;-56
2021/03/22 03:49:30;;;;;;;28.25;7.68;;;;;;;;;;5091566;28;20043;-55
2021/03/22 03:51:55;;;;;;;39.63;7.97;;;;;;;;;;5090938;28;20127;-56
2021/03/22 03:54:20;;;;;;;39.13;7.87;;;;;;;;;;5091297;28;20533;-58
2021/03/22 03:56:46;;;;;;;38.57;8.40;;;;;;;;;;5073295;28;20085;-56
2021/03/22 03:59:11;;;;;;;46.90;7.33;;;;;;;;;;5090876;28;20028;-56
2021/03/22 04:01:37;;;;;;;35.90;6.63;;;;;;;;;;5091276;28;20040;-55
2021/03/22 04:04:02;;;;;;;42.83;7.17;;;;;;;;;;5072758;28;20040;-55
2021/03/22 04:06:30;;;;;;;44.03;7.90;;;;;;;;;;5091502;28;20093;-56
2021/03/22 04:08:57;;;;;;;31.20;6.93;;;;;;;;;;5090815;28;20113;-55
2021/03/22 04:11:27;;;;;;;37.03;7.07;;;;;;;;;;5091320;28;20056;-56
2021/03/22 04:13:53;;;;;;;39.40;8.50;;;;;;;;;;5091318;28;20087;-55
2021/03/22 04:16:19;;;;;;;36.78;8.30;;;;;;;;;;5072572;28;20075;-56
2021/03/22 04:18:44;;;;;;;41.58;8.02;;;;;;;;;;5091097;28;20036;-56
2021/03/22 04:21:11;;;;;;;33.73;9.43;;;;;;;;;;5072171;28;20040;-55
2021/03/22 04:23:36;;;;;;;;;;;;;;;;;;5091677;28;20036;-56
2021/03/22 04:26:03;;;;;;;35.50;7.83;;;;;;;;;;5072453;28;20481;-56
2021/03/22 04:28:28;;;;;;;;;;;;;;;;;;5073414;28;20115;-56
2021/03/22 04:30:53;;;;;;;32.30;7.57;;;;;;;;;;5090933;28;20003;-56
2021/03/22 04:33:19;;;;;;;35.13;9.07;;;;;;;;;;5090562;28;20032;-56
2021/03/22 04:35:44;;;;;;;40.30;8.03;;;;;;;;;;5091064;28;20036;-55
2021/03/22 04:38:09;;;;;;;36.57;7.40;;;;;;;;;;5090544;28;20064;-55
2021/03/22 04:40:35;;;;;;;39.70;7.87;;;;;;;;;;5093932;28;20082;-55
2021/03/22 04:43:00;;;;;;;42.20;9.50;;;;;;;;;;5075958;28;20042;-55
2021/03/22 04:45:27;;;;;;;39.87;8.03;;;;;;;;;;5076481;28;20036;-55
2021/03/22 04:47:53;;;;;;;38.90;7.97;;;;;;;;;;5076087;28;20107;-56
2021/03/22 04:50:19;;;;;;;48.28;9.18;;;;;;;;;;5093950;28;20390;-54
2021/03/22 04:52:45;;;;;;;;;;;;;;;;;;5095095;28;20028;-56
2021/03/22 04:55:10;;;;;;;36.80;7.60;;;;;;;;;;5075691;28;20366;-55
2021/03/22 04:57:35;;;;;;;38.35;9.48;;;;;;;;;;5076249;28;20074;-56
2021/03/22 05:00:04;;;;;;;43.70;7.50;;;;;;;;;;5093785;28;20061;-56
2021/03/22 05:02:29;;;;;;;44.58;8.27;;;;;;;;;;5094284;28;20156;-57
2021/03/22 05:04:55;;;;;;;29.40;6.73;;;;;;;;;;5094373;28;20395;-56
2021/03/22 05:07:20;;;;;;;25.83;5.97;;;;;;;;;;5093716;28;20028;-56
2021/03/22 05:09:46;;;;;;;31.10;6.20;;;;;;;;;;5094339;28;20377;-57
2021/03/22 05:12:12;;;;;;;37.00;7.40;;;;;;;;;;5093593;28;20051;-56
2021/03/22 05:14:37;;;;;;;31.40;6.13;;;;;;;;;;5094087;28;20052;-56
2021/03/22 05:17:03;;;;;;;28.73;5.97;;;;;;;;;;5075034;28;20480;-57
2021/03/22 05:19:29;;;;;;;32.75;6.65;;;;;;;;;;5093739;28;20039;-57
2021/03/22 05:21:56;;;;;;;29.05;6.57;;;;;;;;;;5093986;28;20032;-57
2021/03/22 05:24:21;;;;;;;21.17;6.35;;;;;;;;;;5093159;28;20042;-57
2021/03/22 05:26:47;;;;;;;31.77;7.27;;;;;;;;;;5093920;28;20440;-56
2021/03/22 05:29:12;;;;;;;28.03;5.47;;;;;;;;;;5093196;28;20062;-57
2021/03/22 05:31:38;;;;;;;28.63;7.33;;;;;;;;;;5093911;28;20392;-56
2021/03/22 05:34:04;;;;;;;24.83;6.07;;;;;;;;;;5075463;28;20333;-53
2021/03/22 05:36:29;;;;;;;27.17;6.95;;;;;;;;;;5093688;28;20060;-57
2021/03/22 05:38:54;;;;;;;30.53;6.77;;;;;;;;;;5093781;28;20027;-56
2021/03/22 05:41:22;;;;;;;40.67;7.60;;;;;;;;;;5094456;28;20044;-54
2021/03/22 05:43:50;;;;;;;25.98;6.03;;;;;;;;;;5095344;28;20027;-56
2021/03/22 05:46:36;;;;;;;37.20;7.53;;;;;;;;;;5093564;28;20460;-56
2021/03/22 05:49:09;;;;;;;29.75;5.18;;;;;;;;;;5079310;28;20502;-55
2021/03/22 05:51:53;;;;;;;28.42;6.20;;;;;;;;;;5092726;28;20053;-57
2021/03/22 05:54:25;;;;;;;30.38;5.40;;;;;;;;;;5092386;28;20487;-58
2021/03/22 05:56:56;;;;;;;35.20;6.65;;;;;;;;;;5094779;28;20077;-56
2021/03/22 05:59:40;;;;;;;26.08;5.43;;;;;;;;;;5095060;28;20115;-57
2021/03/22 06:02:10;;;;;;;26.15;6.60;;;;;;;;;;5076703;28;20122;-54
2021/03/22 06:04:54;;;;;;;35.97;6.53;;;;;;;;;;5092910;28;20444;-55
2021/03/22 06:07:21;;;;;;;35.65;6.93;;;;;;;;;;5092174;28;20032;-55
2021/03/22 06:09:58;;;;;;;24.15;5.65;;;;;;;;;;5092871;28;20127;-55
2021/03/22 06:12:27;;;;;;;25.67;6.43;;;;;;;;;;5092028;28;20035;-55
2021/03/22 06:14:52;;;;;;;37.30;7.18;;;;;;;;;;5092509;28;20084;-57
2021/03/22 06:17:19;;;;;;;30.97;5.37;;;;;;;;;;5073953;28;20449;-55
2021/03/22 06:19:55;;;;;;;24.75;6.25;;;;;;;;;;5074669;28;20024;-57
2021/03/22 06:22:25;;;;;;;40.90;7.10;;;;;;;;;;5092120;28;20039;-56
2021/03/22 06:24:51;;;;;;;38.47;6.70;;;;;;;;;;5092562;28;20036;-57
2021/03/22 06:27:17;;;;;;;24.08;5.80;;;;;;;;;;5073988;28;20050;-55
2021/03/22 06:29:43;;;;;;;34.83;6.03;;;;;;;;;;5092344;28;20040;-56
2021/03/22 06:32:21;;;;;;;25.50;5.20;;;;;;;;;;5073820;28;20024;-57
2021/03/22 06:34:52;;;;;;;19.35;5.07;;;;;;;;;;5092544;28;20040;-56
2021/03/22 06:37:19;;;;;;;28.00;4.53;;;;;;;;;;5091537;28;20521;-56
2021/03/22 06:39:45;;;;;;;31.58;4.78;;;;;;;;;;5092420;28;20158;-55
2021/03/22 06:42:22;;;;;;;27.75;6.95;;;;;;;;;;5091903;28;20039;-56
2021/03/22 06:44:47;;;;;;;30.83;6.55;;;;;;;;;;5074088;28;20039;-57
2021/03/22 06:47:13;;;;;;;16.60;4.60;;;;;;;;;;5091284;28;20028;-55
2021/03/22 06:49:40;;;;;;;14.87;4.23;;;;;;;;;;5092128;28;20414;-57
2021/03/22 06:52:05;;;;;;;;;;;;;;;;;;5092479;28;20016;-56
2021/03/22 06:54:32;;;;;;;27.20;4.63;;;;;;;;;;5091388;28;20348;-57
2021/03/22 06:57:03;;;;;;;19.15;4.07;;;;;;;;;;5073368;28;20020;-56
2021/03/22 06:59:29;;;;;;;21.50;4.55;;;;;;;;;;5073333;28;20372;-56
2021/03/22 07:01:54;;;;;;;22.30;4.83;;;;;;;;;;5091575;28;20471;-56
2021/03/22 07:04:19;;;;;;;24.27;4.70;;;;;;;;;;5090544;28;20059;-56
2021/03/22 07:07:04;;;;;;;12.63;3.43;;;;;;;;;;5073357;28;20024;-56
2021/03/22 07:09:33;;;;;;;45.00;5.47;;;;;;;;;;5073045;28;20533;-55
2021/03/22 07:11:59;;;;;;;26.45;4.75;;;;;;;;;;5073193;28;20020;-55
2021/03/22 07:14:25;;;;;;;20.48;4.13;;;;;;;;;;5090744;28;20059;-57
2021/03/22 07:16:51;;;;;;;;;;;;;;;;;;5073521;28;20085;-55
2021/03/22 07:19:18;;;;;;;22.97;4.10;;;;;;;;;;5090712;28;19912;-55
2021/03/22 07:21:45;;;;;;;21.10;4.10;;;;;;;;;;5072916;28;20024;-56
2021/03/22 07:24:13;;;;;;;21.75;3.88;;;;;;;;;;5056405;28;20036;-56
2021/03/22 07:26:57;;;;;;;28.48;5.15;;;;;;;;;;5090460;28;20032;-56
2021/03/22 07:29:32;;;;;;;12.15;3.15;;;;;;;;;;5071167;28;20476;-55
2021/03/22 07:32:05;;;;;;;21.25;3.85;;;;;;;;;;5087498;28;20111;-57
2021/03/22 07:34:30;;;;;;;25.70;4.65;;;;;;;;;;5089389;28;20036;-55
2021/03/22 07:37:08;;;;;;;17.83;3.70;;;;;;;;;;5071882;28;20084;-55
2021/03/22 07:39:52;;;;;;;15.45;4.32;;;;;;;;;;5086842;28;20036;-55
2021/03/22 07:42:36;;;;;;;16.65;3.70;;;;;;;;;;5086630;28;20648;-56
2021/03/22 07:45:07;;;;;;;15.73;5.20;;;;;;;;;;5096302;28;20399;-56
2021/03/22 07:47:41;;;;;;;22.45;3.88;;;;;;;;;;5086750;28;20028;-56
2021/03/22 07:50:24;;;;;;;14.73;2.88;;;;;;;;;;5089550;28;20032;-55
2021/03/22 07:53:07;;;;;;;14.68;3.10;;;;;;;;;;5089829;28;20106;-55
2021/03/22 07:55:36;;;;;;;15.57;2.92;;;;;;;;;;5086860;28;20123;-56
2021/03/22 07:58:04;;;;;;;21.77;5.85;;;;;;;;;;5090043;28;20100;-55
2021/03/22 08:00:35;;;;;;;29.73;3.95;;;;;;;;;;5088835;28;20077;-56
2021/03/22 08:03:18;;;;;;;15.32;3.85;;;;;;;;;;5069761;28;20059;-57
2021/03/22 08:05:59;;;;;;;28.52;5.28;;;;;;;;;;5088112;28;20464;-57
2021/03/22 08:08:30;;;;;;;23.25;4.85;;;;;;;;;;5087208;28;20020;-57
2021/03/22 08:11:01;;;;;;;14.02;3.03;;;;;;;;;;5087449;28;20108;-56
2021/03/22 08:13:30;;;;;;;15.35;3.00;;;;;;;;;;5088807;28;20028;-57
2021/03/22 08:16:01;;;;;;;11.40;3.35;;;;;;;;;;5090382;28;20108;-57
2021/03/22 08:18:32;;;;;;;15.65;3.10;;;;;;;;;;5092717;28;20028;-60
2021/03/22 08:21:04;;;;;;;13.15;3.00;;;;;;;;;;5094212;28;20036;-62
2021/03/22 08:23:36;;;;;;;14.18;2.30;;;;;;;;;;5094261;28;20054;-57
2021/03/22 08:26:03;;;;;;;11.85;2.42;;;;;;;;;;5094727;28;20032;-56
2021/03/22 08:28:41;;;;;;;6.93;2.08;;;;;;;;;;5093651;28;20089;-57
2021/03/22 08:31:22;;;;;;;7.68;1.70;;;;;;;;;;5093086;28;20494;-57
2021/03/22 08:33:49;;;;;;;8.88;1.90;;;;;;;;;;5092230;28;20040;-58
2021/03/22 08:36:22;;;;;;;9.77;1.52;;;;;;;;;;5094712;28;20043;-55
2021/03/22 08:38:50;;;;;;;5.50;1.90;;;;;;;;;;5091614;28;20048;-57
2021/03/22 08:41:29;;;;;;;8.52;2.20;;;;;;;;;;5094529;28;20032;-57
2021/03/22 08:44:01;;;;;;;10.45;2.10;;;;;;;;;;5094646;28;20085;-56
2021/03/22 08:46:26;;;;;;;13.00;2.30;;;;;;;;;;5075755;28;20043;-56
2021/03/22 08:48:52;;;;;;;6.10;1.43;;;;;;;;;;5094225;28;20040;-57
2021/03/22 08:51:23;;;;;;;8.10;1.87;;;;;;;;;;5059252;28;20012;-58
2021/03/22 08:53:50;;;;;;;9.00;2.53;;;;;;;;;;5094036;28;20720;-56
2021/03/22 08:56:34;;;;;;;9.27;1.92;;;;;;;;;;5093824;28;20028;-57
2021/03/22 08:59:01;;;;;;;12.07;3.00;;;;;;;;;;5092315;28;20051;-57
2021/03/22 09:01:34;;;;;;;10.30;2.00;;;;;;;;;;5092984;28;20263;-55
2021/03/22 09:04:23;;;;;;;11.53;2.70;;;;;;;;;;5105750;28;20272;-56
2021/03/22 09:06:56;;;;;;;5.53;1.53;;;;;;;;;;5072493;28;20268;-57
2021/03/22 09:09:25;;;;;;;12.37;3.37;;;;;;;;;;5094071;28;20308;-57
2021/03/22 09:11:51;;;;;;;6.83;1.80;;;;;;;;;;5093539;28;20290;-57
2021/03/22 09:14:32;;;;;;;5.47;2.13;;;;;;;;;;5075141;28;20292;-55
2021/03/22 09:16:59;;;;;;;8.63;1.90;;;;;;;;;;5075282;28;20028;-56
2021/03/22 09:19:29;;;;;;;5.00;1.87;;;;;;;;;;5093249;28;20265;-55
2021/03/22 09:21:55;;;;;;;4.87;1.80;;;;;;;;;;5093258;28;20267;-57
2021/03/22 09:27:24;;;;;;;7.27;1.73;;;;;;;;;;5093225;28;20081;-54
2021/03/22 09:29:54;;;;;;;9.43;1.27;;;;;;;;;;5092539;28;20866;-56
2021/03/22 09:32:32;;;;;;;10.80;2.10;;;;;;;;;;5092946;28;20269;-55
2021/03/22 09:35:01;;;;;;;4.47;0.93;;;;;;;;;;5092168;28;20333;-56
2021/03/22 09:37:42;;;;;;;4.57;1.13;;;;;;;;;;5093008;28;20276;-54
2021/03/22 09:40:20;;;;;;;5.40;1.50;;;;;;;;;;5092957;28;20262;-57
2021/03/22 09:43:04;;;;;;;6.07;1.60;;;;;;;;;;5092546;28;20269;-55
2021/03/22 09:45:30;;;;;;;5.40;2.00;;;;;;;;;;5092387;28;20291;-56
2021/03/22 09:48:25;;;;;;;3.17;1.10;;;;;;;;;;5093116;28;20591;-56
2021/03/22 09:51:11;;;;;;;4.20;1.83;;;;;;;;;;5090342;28;20261;-54
2021/03/22 09:53:52;;;;;;;6.60;1.40;;;;;;;;;;5059354;28;20637;-56
2021/03/22 09:56:37;;;;;;;4.70;1.03;;;;;;;;;;5091342;28;20676;-57
2021/03/22 09:59:21;;;;;;;5.33;1.50;;;;;;;;;;5091364;28;20685;-56
2021/03/22 10:01:47;;;;;;;6.30;1.10;;;;;;;;;;5091598;28;20704;-56
2021/03/22 10:04:13;;;;;;;8.73;1.07;;;;;;;;;;5092739;28;20253;-57
2021/03/22 10:06:42;;;;;;;5.20;0.90;;;;;;;;;;5091506;28;20546;-55
2021/03/22 10:09:12;;;;;;;4.03;0.90;;;;;;;;;;5092314;28;20064;-55
2021/03/22 10:11:41;;;;;;;5.50;0.90;;;;;;;;;;5070857;28;20265;-55
2021/03/22 10:14:07;;;;;;;5.57;1.03;;;;;;;;;;5091811;28;20752;-55
2021/03/22 10:16:36;;;;;;;6.03;0.90;;;;;;;;;;5073332;28;20286;-55
2021/03/22 10:19:05;;;;;;;2.97;1.17;;;;;;;;;;5092400;28;20031;-55
2021/03/22 10:21:37;;;;;;;4.37;1.03;;;;;;;;;;5087792;28;20261;-54
2021/03/22 10:24:05;;;;;;;4.50;0.93;;;;;;;;;;5071934;28;20269;-54
2021/03/22 10:26:42;;;;;;;2.10;0.40;;;;;;;;;;5071971;28;20250;-53
2021/03/22 10:29:21;;;;;;;2.90;0.70;;;;;;;;;;5041235;28;20265;-55
2021/03/22 10:31:49;;;;;;;4.73;0.53;;;;;;;;;;5091539;28;20069;-55
2021/03/22 10:34:22;;;;;;;2.67;0.60;;;;;;;;;;5073509;28;20333;-54
2021/03/22 10:36:48;;;;;;;0.60;0.37;;;;;;;;;;5072922;28;20783;-54
2021/03/22 10:39:21;;;;;;;4.07;1.08;;;;;;;;;;5091590;28;20296;-53
2021/03/22 10:41:47;;;;;;;3.80;0.83;;;;;;;;;;5091419;28;20392;-55
2021/03/22 10:44:12;;;;;;;6.77;1.07;;;;;;;;;;5091537;28;20265;-54
2021/03/22 10:46:37;;;;;;;6.57;0.80;;;;;;;;;;5072706;28;20365;-54
2021/03/22 10:49:20;;;;;;;0.93;0.60;;;;;;;;;;5091858;28;20024;-54
2021/03/22 10:51:47;;;;;;;1.90;0.60;;;;;;;;;;5090950;28;20024;-54
2021/03/22 10:54:14;;;;;;;3.13;0.90;;;;;;;;;;5056709;28;20597;-55
2021/03/22 10:56:47;;;;;;;2.30;0.67;;;;;;;;;;5091082;28;20275;-54
2021/03/22 10:59:15;;;;;;;3.97;0.73;;;;;;;;;;5091074;28;20267;-55
2021/03/22 11:01:41;;;;;;;2.97;0.90;;;;;;;;;;5090741;28;20261;-53
2021/03/22 11:04:12;;;;;;;4.70;1.02;;;;;;;;;;5091289;28;20343;-54
2021/03/22 11:06:38;;;;;;;5.97;1.00;;;;;;;;;;5091004;28;20028;-53
2021/03/22 11:09:05;;;;;;;;;;;;;;;;;;5091795;28;20303;-54
2021/03/22 11:11:31;;;;;;;2.10;0.90;;;;;;;;;;5072865;28;19908;-55
2021/03/22 11:13:58;;;;;;;4.05;0.70;;;;;;;;;;5090071;28;20361;-54
2021/03/22 11:16:26;;;;;;;5.53;1.50;;;;;;;;;;5056543;28;20040;-54
2021/03/22 11:18:51;;;;;;;3.63;0.97;;;;;;;;;;5090606;28;20276;-54
2021/03/22 11:21:21;;;;;;;3.57;1.47;;;;;;;;;;5106888;28;20257;-53
2021/03/22 11:23:46;;;;;;;4.97;0.83;;;;;;;;;;5104382;28;20038;-55
2021/03/22 11:26:21;;;;;;;1.47;0.70;;;;;;;;;;5055433;28;20269;-54
2021/03/22 11:28:48;;;;;;;1.93;0.70;;;;;;;;;;5090319;28;20555;-51
2021/03/22 11:31:13;;;;;;;;;;;;;;;;;;5073410;28;20313;-55
2021/03/22 11:33:40;;;;;;;3.27;0.90;;;;;;;;;;5090689;28;20359;-52
2021/03/22 11:36:14;;;;;;;3.43;0.93;;;;;;;;;;5091311;28;20118;-54
2021/03/22 11:38:45;;;;;;;9.77;1.57;;;;;;;;;;5101881;28;20272;-53
2021/03/22 11:41:23;;;;;;;4.10;0.80;;;;;;;;;;5070908;28;20298;-56
2021/03/22 11:43:59;;;;;;;2.37;0.70;;;;;;;;;;5085696;28;20613;-55
2021/03/22 11:46:25;;;;;;;1.33;0.70;;;;;;;;;;5093900;28;20253;-54
2021/03/22 11:48:50;;;;;;;1.50;0.60;;;;;;;;;;5090913;28;20141;-51
2021/03/22 11:51:16;;;;;;;2.80;0.80;;;;;;;;;;5077675;28;20131;-54
2021/03/22 11:54:00;;;;;;;4.67;1.47;;;;;;;;;;5106348;28;20462;-55
2021/03/22 11:56:28;;;;;;;2.80;1.00;;;;;;;;;;5098817;28;20118;-52
2021/03/22 11:59:18;;;;;;;2.53;1.03;;;;;;;;;;5097235;28;20325;-54
2021/03/22 12:01:58;;;;;;;4.67;1.10;;;;;;;;;;5090920;28;20372;-54
2021/03/22 12:04:23;;;;;;;3.37;0.60;;;;;;;;;;5092525;28;20272;-54
2021/03/22 12:07:06;;;;;;;3.23;1.10;;;;;;;;;;5092675;28;20261;-53
2021/03/22 12:09:33;;;;;;;7.30;1.40;;;;;;;;;;5095201;28;20370;-55
2021/03/22 12:12:00;;;;;;;4.20;1.75;;;;;;;;;;5094133;28;20265;-56
2021/03/22 12:14:25;;;;;;;3.27;0.97;;;;;;;;;;5094207;28;20069;-56
2021/03/22 12:16:56;;;;;;;3.53;0.90;;;;;;;;;;5094110;28;20330;-55
2021/03/22 12:19:24;;;;;;;2.33;0.90;;;;;;;;;;5094982;28;20115;-56
2021/03/22 12:21:50;;;;;;;2.30;0.80;;;;;;;;;;5093793;28;20736;-56
2021/03/22 12:24:16;;;;;;;1.98;0.70;;;;;;;;;;5094723;28;20267;-50
2021/03/22 12:26:42;;;;;;;1.90;0.70;;;;;;;;;;5094358;28;20471;-53
2021/03/22 12:29:07;;;;;;;3.10;1.37;;;;;;;;;;5092575;28;20036;-52
2021/03/22 12:31:43;;;;;;;2.77;1.47;;;;;;;;;;5094411;28;20111;-53
2021/03/22 12:34:11;;;;;;;2.60;0.90;;;;;;;;;;5093804;28;20036;-54
2021/03/22 12:36:37;;;;;;;2.23;0.83;;;;;;;;;;5094753;28;20374;-53
2021/03/22 12:39:11;;;;;;;4.57;1.00;;;;;;;;;;5092486;28;20288;-55
2021/03/22 12:41:36;;;;;;;3.03;1.10;;;;;;;;;;5094541;28;20089;-55
2021/03/22 12:44:03;;;;;;;1.47;0.97;;;;;;;;;;5091742;28;20748;-55
2021/03/22 12:46:29;;;;;;;3.27;1.10;;;;;;;;;;5089852;28;20028;-52
2021/03/22 12:48:54;;;;;;;1.45;0.95;;;;;;;;;;5093341;28;20344;-52
2021/03/22 12:51:19;;;;;;;3.53;0.90;;;;;;;;;;5109725;28;20127;-53
2021/03/22 12:53:45;;;;;;;3.40;0.93;;;;;;;;;;5075801;28;20052;-55
2021/03/22 12:56:14;;;;;;;2.97;1.10;;;;;;;;;;5093376;28;20035;-54
2021/03/22 12:58:40;;;;;;;6.20;1.40;;;;;;;;;;5109461;28;20032;-54
2021/03/22 13:01:06;;;;;;;3.47;1.33;;;;;;;;;;5099816;28;20722;-52
2021/03/22 13:03:31;;;;;;;1.83;1.10;;;;;;;;;;5089423;28;20107;-54
2021/03/22 13:05:57;;;;;;;3.53;1.00;;;;;;;;;;5073911;28;20063;-52
2021/03/22 13:08:23;;;;;;;3.07;1.70;;;;;;;;;;5104545;28;20750;-51
2021/03/22 13:10:49;;;;;;;;;;;;;;;;;;5114621;28;20027;-52
2021/03/22 13:13:14;;;;;;;4.10;1.40;;;;;;;;;;5113208;28;19908;-52
2021/03/22 13:15:44;;;;;;;2.37;1.20;;;;;;;;;;5114180;28;20504;-55
2021/03/22 13:18:12;;;;;;;3.00;1.00;;;;;;;;;;5112998;28;20496;-55
2021/03/22 13:20:37;;;;;;;4.87;1.57;;;;;;;;;;5114068;28;20276;-55
2021/03/22 13:23:03;;;;;;;4.80;1.47;;;;;;;;;;5113248;28;20439;-54
2021/03/22 13:25:28;;;;;;;3.50;1.10;;;;;;;;;;5113606;28;20050;-53
2021/03/22 13:27:54;;;;;;;4.88;1.98;;;;;;;;;;5094411;28;20114;-56
2021/03/22 13:30:21;;;;;;;7.97;2.30;;;;;;;;;;5108683;28;20031;-52
2021/03/22 13:32:47;;;;;;;6.13;1.70;;;;;;;;;;5092382;28;20039;-55
2021/03/22 13:35:18;;;;;;;3.10;1.53;;;;;;;;;;5092591;28;20745;-55
2021/03/22 13:37:44;;;;;;;3.93;1.60;;;;;;;;;;5093127;28;20052;-54
2021/03/22 13:40:09;;;;;;;2.22;1.48;;;;;;;;;;5074165;28;20748;-54
2021/03/22 13:42:35;;;;;;;3.47;1.50;;;;;;;;;;5074504;28;20036;-56
2021/03/22 13:45:00;;;;;;;3.00;1.67;;;;;;;;;;5091976;28;20054;-55
2021/03/22 13:47:25;;;;;;;3.60;1.60;;;;;;;;;;5074791;28;20046;-56
2021/03/22 13:49:51;;;;;;;2.43;1.47;;;;;;;;;;5074562;28;20032;-55
2021/03/22 13:52:19;;;;;;;3.03;1.80;;;;;;;;;;5074006;28;20036;-55
2021/03/22 13:54:44;;;;;;;2.73;1.67;;;;;;;;;;5092687;28;20016;-55
2021/03/22 13:57:09;;;;;;;2.00;1.30;;;;;;;;;;5092099;28;20650;-54
2021/03/22 13:59:35;;;;;;;3.93;1.60;;;;;;;;;;5092573;28;20028;-54
2021/03/22 14:02:00;;;;;;;4.90;1.53;;;;;;;;;;5082103;28;20059;-53
2021/03/22 14:04:26;;;;;;;3.80;1.50;;;;;;;;;;5092730;28;20032;-56
2021/03/22 14:06:52;;;;;;;5.30;1.58;;;;;;;;;;5092690;28;20009;-54
2021/03/22 14:09:19;;;;;;;4.37;1.70;;;;;;;;;;5091986;28;20034;-54
2021/03/22 14:11:44;;;;;;;6.47;2.40;;;;;;;;;;5092289;28;20269;-56
2021/03/22 14:14:10;;;;;;;7.23;2.03;;;;;;;;;;5091722;28;20281;-54
2021/03/22 14:16:36;;;;;;;3.50;1.48;;;;;;;;;;5092327;28;20119;-54
2021/03/22 14:19:02;;;;;;;4.18;3.03;;;;;;;;;;5090790;28;20032;-52
2021/03/22 14:21:27;;;;;;;2.88;1.50;;;;;;;;;;5092791;28;20036;-54
2021/03/22 14:23:53;;;;;;;5.00;1.60;;;;;;;;;;5092302;28;20040;-51
2021/03/22 14:26:19;;;;;;;4.93;1.50;;;;;;;;;;5090298;28;20169;-54
2021/03/22 14:28:44;;;;;;;4.55;1.52;;;;;;;;;;5092443;28;20062;-55
2021/03/22 14:31:14;;;;;;;4.90;1.63;;;;;;;;;;5090299;28;20032;-53
2021/03/22 14:33:40;;;;;;;3.20;1.60;;;;;;;;;;5092316;28;20221;-55
2021/03/22 14:36:06;;;;;;;7.18;1.70;;;;;;;;;;5089742;28;20319;-53
2021/03/22 14:38:31;;;;;;;6.28;1.88;;;;;;;;;;5092200;28;20081;-54
2021/03/22 14:40:57;;;;;;;4.37;2.40;;;;;;;;;;5091047;28;20040;-53
2021/03/22 14:43:22;;;;;;;5.10;1.70;;;;;;;;;;5091354;28;20048;-55
2021/03/22 14:45:47;;;;;;;4.17;1.97;;;;;;;;;;5092021;28;20032;-55
2021/03/22 14:48:14;;;;;;;2.60;1.70;;;;;;;;;;5091247;28;20036;-53
2021/03/22 14:50:40;;;;;;;2.38;1.40;;;;;;;;;;5090898;28;20414;-54